Clay Center, Kansas
Current Conditions -  °F | °C
As of 8:52 PM on Thursday 27 Nov 2014 (Local Time) from KMHK Reporting Station
Clear Clear  
Wind Chill: 27°   Ceiling: Unl
Heat Index: 32°   Visibility: 10mi
Dew Point: 19°   Wind: 5mph
Humidity: 59%   Direction: 180°S
Pressure: 30.22"   Gusts: NA
Location:  39.38°N, 97.12°W
Report Text: KMHK 280252Z AUTO 18004KT 10SM CLR 00/M07 A3022 RMK AO2 SLP245 T00001072 58022 TSNO
Loading
Personal Weather Stations






























Interactive Weather Map New forecast layout! Learn more

10-Day Weather Forecast

Advertisements
Track Severe Weather on mobile